createdAt,value
2023-01-20T00:01:59.914Z,20.60
2023-01-20T00:04:27.995Z,21.75
2023-01-20T00:06:56.187Z,20.30
2023-01-20T00:09:24.261Z,20.48
2023-01-20T00:11:52.339Z,20.00
2023-01-20T00:14:21.125Z,20.45
2023-01-20T00:16:49.307Z,19.85
2023-01-20T00:19:18.767Z,20.10
2023-01-20T00:21:46.923Z,18.77
2023-01-20T00:24:15.266Z,19.70
2023-01-20T00:26:43.449Z,20.15
2023-01-20T00:29:11.627Z,18.80
2023-01-20T00:31:39.860Z,18.48
2023-01-20T00:34:08.032Z,18.33
2023-01-20T00:36:37.546Z,18.95
2023-01-20T00:39:06.002Z,19.23
2023-01-20T00:41:34.275Z,18.00
2023-01-20T00:44:02.387Z,18.65
2023-01-20T00:46:30.558Z,18.48
2023-01-20T00:48:58.884Z,18.15
2023-01-20T00:51:27.076Z,16.63
2023-01-20T00:53:56.764Z,17.02
2023-01-20T00:56:24.877Z,17.27
2023-01-20T00:58:55.167Z,17.13
2023-01-20T01:01:23.449Z,17.60
2023-01-20T01:03:54.167Z,17.13
2023-01-20T01:06:23.693Z,16.55
2023-01-20T01:08:51.860Z,16.67
2023-01-20T01:11:21.267Z,16.42
2023-01-20T01:13:49.409Z,15.45
2023-01-20T01:16:17.564Z,16.88
2023-01-20T01:18:45.756Z,16.02
2023-01-20T01:21:15.472Z,16.15
2023-01-20T01:23:43.624Z,15.20
2023-01-20T01:26:11.859Z,15.48
2023-01-20T01:28:41.611Z,15.27
2023-01-20T01:31:09.747Z,15.27
2023-01-20T01:33:37.861Z,15.50
2023-01-20T01:36:08.562Z,15.20
2023-01-20T01:38:36.753Z,15.40
2023-01-20T01:41:04.820Z,14.63
2023-01-20T01:43:33.685Z,14.82
2023-01-20T01:46:03.213Z,14.10
2023-01-20T01:48:32.958Z,14.50
2023-01-20T01:51:03.089Z,12.43
2023-01-20T01:53:31.252Z,12.73
2023-01-20T01:56:00.442Z,12.48
2023-01-20T01:58:29.295Z,12.68
2023-01-20T02:00:57.411Z,13.10
2023-01-20T02:03:27.544Z,13.50
2023-01-20T02:05:55.656Z,12.77
2023-01-20T02:08:23.788Z,12.73
2023-01-20T02:10:51.862Z,12.70
2023-01-20T02:13:19.999Z,12.65
2023-01-20T02:15:51.203Z,12.40
2023-01-20T02:18:40.154Z,12.45
2023-01-20T02:21:27.831Z,12.00
2023-01-20T02:24:31.939Z,12.77
2023-01-20T02:27:03.672Z,12.38
2023-01-20T02:29:46.176Z,12.27
2023-01-20T02:32:33.136Z,12.27
2023-01-20T02:35:03.612Z,12.07
2023-01-20T02:37:33.560Z,11.77
2023-01-20T02:40:08.720Z,11.55
2023-01-20T02:42:39.608Z,11.93
2023-01-20T02:45:10.507Z,12.10
2023-01-20T02:47:42.670Z,11.52
2023-01-20T02:50:22.207Z,11.38
2023-01-20T02:52:52.139Z,10.85
2023-01-20T02:55:24.043Z,10.90
2023-01-20T02:57:55.223Z,12.25
2023-01-20T03:00:26.397Z,11.10
2023-01-20T03:02:56.338Z,11.63
2023-01-20T03:05:26.010Z,11.00
2023-01-20T03:07:54.360Z,10.65
2023-01-20T03:10:23.847Z,10.68
2023-01-20T03:12:52.995Z,10.30
2023-01-20T03:15:23.151Z,10.35
2023-01-20T03:17:51.378Z,10.77
2023-01-20T03:20:21.005Z,10.35
2023-01-20T03:22:49.160Z,10.07
2023-01-20T03:25:17.348Z,10.23
2023-01-20T03:27:45.719Z,9.50
2023-01-20T03:30:14.992Z,9.95
2023-01-20T03:32:43.622Z,9.85
2023-01-20T03:35:11.853Z,9.73
2023-01-20T03:37:41.420Z,9.82
2023-01-20T03:40:10.770Z,9.35
2023-01-20T03:42:40.848Z,9.80
2023-01-20T03:45:10.987Z,9.63
2023-01-20T03:47:49.779Z,9.35
2023-01-20T03:50:24.039Z,9.88
2023-01-20T03:52:55.396Z,9.05
2023-01-20T03:55:24.968Z,8.90
2023-01-20T03:57:55.605Z,8.90
2023-01-20T04:00:24.209Z,8.80
2023-01-20T04:02:52.326Z,8.85
2023-01-20T04:05:20.596Z,8.73
2023-01-20T04:07:48.767Z,9.15
2023-01-20T04:10:18.713Z,8.70
2023-01-20T04:12:46.914Z,8.50
2023-01-20T04:15:15.212Z,9.00
2023-01-20T04:17:43.745Z,8.45
2023-01-20T04:20:12.416Z,8.35
2023-01-20T04:22:43.457Z,8.20
2023-01-20T04:25:15.291Z,8.77
2023-01-20T04:27:45.048Z,8.15
2023-01-20T04:30:14.311Z,7.70
2023-01-20T04:32:42.449Z,8.30
2023-01-20T04:35:11.621Z,8.10
2023-01-20T04:37:39.854Z,8.32
2023-01-20T04:40:09.191Z,6.85
2023-01-20T04:42:37.479Z,7.00
2023-01-20T04:45:08.858Z,6.97
2023-01-20T04:47:37.060Z,6.55
2023-01-20T04:50:05.613Z,7.47
2023-01-20T04:52:33.830Z,7.13
2023-01-20T04:55:01.880Z,7.15
2023-01-20T04:57:30.058Z,7.40
2023-01-20T04:59:58.211Z,7.40
2023-01-20T05:02:27.700Z,6.90
2023-01-20T05:04:55.883Z,7.35
2023-01-20T05:07:23.992Z,7.15
2023-01-20T05:09:52.123Z,6.75
2023-01-20T05:12:20.211Z,6.63
2023-01-20T05:14:48.405Z,6.93
2023-01-20T05:17:16.618Z,7.00
2023-01-20T05:19:46.145Z,6.65
2023-01-20T05:22:14.320Z,6.65
2023-01-20T05:24:42.696Z,6.90
2023-01-20T05:27:10.868Z,6.60
2023-01-20T05:29:38.941Z,6.75
2023-01-20T05:32:07.175Z,6.50
2023-01-20T05:34:35.346Z,6.85
2023-01-20T05:37:04.831Z,6.60
2023-01-20T05:39:33.025Z,6.25
2023-01-20T05:42:02.128Z,6.20
2023-01-20T05:44:30.354Z,6.78
2023-01-20T05:46:58.418Z,6.63
2023-01-20T05:49:26.643Z,6.55
2023-01-20T05:51:55.011Z,6.47
2023-01-20T05:54:24.667Z,6.03
2023-01-20T05:56:52.833Z,6.38
2023-01-20T05:59:21.030Z,6.03
2023-01-20T06:01:49.374Z,6.20
2023-01-20T06:04:17.452Z,5.97
2023-01-20T06:06:45.627Z,5.97
2023-01-20T06:09:13.714Z,6.28
2023-01-20T06:11:43.288Z,5.65
2023-01-20T06:14:11.396Z,6.20
2023-01-20T06:16:39.614Z,5.97
2023-01-20T06:19:07.744Z,5.60
2023-01-20T06:21:36.033Z,6.07
2023-01-20T06:24:04.128Z,5.50
2023-01-20T06:26:32.304Z,5.57
2023-01-20T06:29:01.963Z,5.95
2023-01-20T06:31:30.091Z,5.60
2023-01-20T06:33:58.298Z,5.45
2023-01-20T06:36:26.426Z,5.70
2023-01-20T06:38:54.591Z,5.72
2023-01-20T06:41:22.721Z,5.97
2023-01-20T06:43:52.052Z,5.25
2023-01-20T06:46:22.470Z,5.53
2023-01-20T06:48:50.816Z,5.63
2023-01-20T06:51:20.069Z,5.13
2023-01-20T06:53:48.458Z,5.55
2023-01-20T06:56:17.151Z,5.18
2023-01-20T06:58:45.372Z,5.22
2023-01-20T07:01:14.309Z,6.15
2023-01-20T07:03:44.491Z,6.03
2023-01-20T07:06:17.009Z,7.32
2023-01-20T07:08:45.270Z,6.13
2023-01-20T07:11:13.450Z,9.00
2023-01-20T07:13:41.584Z,9.38
2023-01-20T07:16:12.025Z,9.52
2023-01-20T07:18:41.235Z,10.20
2023-01-20T07:21:10.875Z,12.73
2023-01-20T07:23:39.006Z,19.35
2023-01-20T07:26:08.110Z,15.43
2023-01-20T07:28:36.406Z,19.70
2023-01-20T07:31:05.078Z,18.08
2023-01-20T07:33:33.232Z,16.33
2023-01-20T07:36:01.989Z,17.23
2023-01-20T07:38:31.507Z,18.42
2023-01-20T07:40:59.772Z,18.13
2023-01-20T07:43:28.064Z,16.23
2023-01-20T07:45:57.059Z,17.17
2023-01-20T07:48:25.749Z,18.42
2023-01-20T07:51:01.950Z,19.05
2023-01-20T07:53:31.593Z,19.10
2023-01-20T07:56:01.746Z,18.20
2023-01-20T07:58:29.996Z,19.33
2023-01-20T08:00:58.226Z,18.73
2023-01-20T08:03:27.480Z,18.48
2023-01-20T08:05:55.738Z,18.73
2023-01-20T08:08:24.560Z,19.75
2023-01-20T08:10:56.016Z,19.52
2023-01-20T08:13:24.220Z,18.77
2023-01-20T08:15:52.280Z,20.00
2023-01-20T08:18:20.416Z,19.42
2023-01-20T08:20:48.512Z,20.10
2023-01-20T08:23:16.731Z,22.98
2023-01-20T08:25:44.891Z,23.27
2023-01-20T08:28:14.374Z,22.30
2023-01-20T08:30:42.841Z,21.50
2023-01-20T08:33:11.343Z,21.42
2023-01-20T08:35:39.527Z,21.85
2023-01-20T08:38:07.759Z,20.35
2023-01-20T08:40:35.887Z,21.20
2023-01-20T08:43:04.061Z,21.25
2023-01-20T08:45:33.622Z,21.67
2023-01-20T08:48:01.732Z,20.77
2023-01-20T08:50:29.882Z,21.48
2023-01-20T08:52:57.997Z,21.83
2023-01-20T08:55:26.075Z,21.95
2023-01-20T08:57:54.727Z,25.00
2023-01-20T09:00:23.464Z,24.20
2023-01-20T09:02:53.054Z,21.27
2023-01-20T09:05:22.404Z,22.00
2023-01-20T09:07:50.442Z,23.80
2023-01-20T09:10:19.973Z,30.15
2023-01-20T09:12:48.717Z,26.30
2023-01-20T09:15:17.264Z,27.17
2023-01-20T09:17:45.366Z,26.55
2023-01-20T09:20:15.631Z,27.83
2023-01-20T09:22:43.765Z,28.40
2023-01-20T09:25:11.910Z,26.17
2023-01-20T09:27:40.209Z,27.20
2023-01-20T09:30:09.741Z,27.40
2023-01-20T09:32:37.849Z,27.48
2023-01-20T09:35:07.037Z,27.45
2023-01-20T09:37:54.207Z,27.65
2023-01-20T09:40:41.759Z,28.65
2023-01-20T09:43:36.891Z,28.50
2023-01-20T09:46:09.678Z,28.80
2023-01-20T09:48:56.809Z,28.83
2023-01-20T09:51:43.921Z,29.40
2023-01-20T09:54:15.552Z,29.23
2023-01-20T09:56:47.063Z,30.10
2023-01-20T09:59:17.026Z,29.52
2023-01-20T10:01:46.811Z,29.70
2023-01-20T10:04:17.340Z,31.73
2023-01-20T10:06:46.598Z,33.50
2023-01-20T10:09:21.357Z,30.60
2023-01-20T10:11:50.584Z,31.25
2023-01-20T10:14:22.092Z,36.45
2023-01-20T10:16:52.132Z,42.72
2023-01-20T10:19:27.342Z,42.10
2023-01-20T10:21:58.275Z,41.88
2023-01-20T10:24:30.479Z,41.35
2023-01-20T10:27:00.490Z,44.83
2023-01-20T10:29:30.708Z,46.30
2023-01-20T10:32:00.782Z,46.80
2023-01-20T10:34:31.923Z,45.75
2023-01-20T10:37:03.775Z,46.80
2023-01-20T10:39:36.647Z,47.13
2023-01-20T10:42:05.892Z,46.33
2023-01-20T10:44:35.044Z,46.55
2023-01-20T10:47:13.648Z,46.97
2023-01-20T10:49:53.202Z,47.33
2023-01-20T10:52:29.158Z,45.35
2023-01-20T10:55:02.584Z,48.13
2023-01-20T10:57:31.014Z,45.17
2023-01-20T11:00:00.964Z,46.10
2023-01-20T11:02:30.452Z,46.28
2023-01-20T11:05:00.180Z,45.15
2023-01-20T11:07:28.577Z,45.75
2023-01-20T11:09:56.733Z,44.95
2023-01-20T11:12:27.084Z,49.53
2023-01-20T11:14:55.646Z,52.13
2023-01-20T11:17:23.779Z,51.42
2023-01-20T11:19:53.152Z,52.22
2023-01-20T11:22:27.233Z,52.88
2023-01-20T11:24:55.843Z,53.28
2023-01-20T11:27:25.110Z,51.55
2023-01-20T11:29:58.123Z,52.30
2023-01-20T11:32:28.621Z,49.67
2023-01-20T11:34:56.911Z,52.15
2023-01-20T11:37:26.663Z,51.88
2023-01-20T11:40:07.663Z,49.88
2023-01-20T11:42:43.887Z,50.25
2023-01-20T11:45:26.361Z,48.63
2023-01-20T11:48:01.951Z,49.08
2023-01-20T11:50:32.959Z,49.63
2023-01-20T11:53:17.892Z,47.42
2023-01-20T11:55:48.189Z,47.03
2023-01-20T11:58:18.658Z,47.10
2023-01-20T12:00:48.396Z,47.13
2023-01-20T12:03:53.274Z,46.92
2023-01-20T12:06:23.856Z,47.08
2023-01-20T12:08:52.610Z,47.28
2023-01-20T12:11:24.807Z,50.22
2023-01-20T12:14:20.356Z,48.30
2023-01-20T12:17:04.753Z,48.53
2023-01-20T12:19:37.205Z,48.30
2023-01-20T12:22:10.818Z,48.15
2023-01-20T12:24:55.266Z,46.53
2023-01-20T12:27:26.963Z,46.92
2023-01-20T12:29:56.163Z,47.55
2023-01-20T12:32:25.717Z,47.13
2023-01-20T12:34:53.919Z,47.10
2023-01-20T12:37:23.922Z,46.70
2023-01-20T12:39:58.481Z,50.92
2023-01-20T12:43:02.240Z,59.60
2023-01-20T12:45:41.143Z,57.60
2023-01-20T12:48:19.117Z,64.40
2023-01-20T12:50:56.380Z,73.68
2023-01-20T12:53:34.444Z,73.38
2023-01-20T12:56:05.411Z,68.00
2023-01-20T12:58:40.781Z,67.80
2023-01-20T13:01:29.590Z,60.22
2023-01-20T13:04:18.160Z,61.08
2023-01-20T13:07:10.409Z,62.30
2023-01-20T13:09:45.191Z,64.45
2023-01-20T13:12:31.621Z,70.70
2023-01-20T13:15:01.890Z,73.18
2023-01-20T13:17:33.977Z,70.88
2023-01-20T13:20:04.867Z,69.30
2023-01-20T13:22:34.571Z,68.05
2023-01-20T13:25:04.973Z,68.32
2023-01-20T13:27:34.961Z,67.43
2023-01-20T13:30:04.560Z,66.05
2023-01-20T13:32:34.464Z,64.60
2023-01-20T13:35:06.663Z,64.32
2023-01-20T13:37:38.064Z,63.58
2023-01-20T13:40:28.156Z,61.97
2023-01-20T13:42:56.403Z,66.07
2023-01-20T13:45:26.450Z,65.25
2023-01-20T13:48:02.545Z,68.22
2023-01-20T13:50:33.748Z,69.40
2023-01-20T13:53:16.201Z,66.13
2023-01-20T13:55:54.915Z,69.80
2023-01-20T13:58:24.077Z,63.83
2023-01-20T14:00:53.002Z,64.50
2023-01-20T14:03:29.051Z,64.30
2023-01-20T14:06:00.076Z,66.93
2023-01-20T14:08:29.512Z,63.67
2023-01-20T14:11:14.284Z,64.70
2023-01-20T14:13:43.213Z,64.18
2023-01-20T14:16:19.945Z,64.40
2023-01-20T14:18:48.840Z,64.13
2023-01-20T14:21:20.196Z,63.95
2023-01-20T14:23:48.360Z,63.70
2023-01-20T14:26:21.535Z,64.63
2023-01-20T14:28:50.898Z,63.45
2023-01-20T14:31:24.165Z,61.03
2023-01-20T14:33:56.248Z,61.10
2023-01-20T14:36:26.698Z,58.22
2023-01-20T14:38:58.327Z,55.50
2023-01-20T14:41:28.537Z,48.70
2023-01-20T14:43:56.859Z,42.97
2023-01-20T14:46:25.178Z,46.17
2023-01-20T14:48:54.109Z,46.22
2023-01-20T14:51:22.502Z,44.30
2023-01-20T14:54:23.991Z,44.70
2023-01-20T14:56:53.593Z,43.13
2023-01-20T14:59:21.768Z,43.00
2023-01-20T15:01:54.657Z,43.15
2023-01-20T15:04:23.005Z,42.45
2023-01-20T15:06:55.462Z,47.20
2023-01-20T15:09:28.033Z,49.15
2023-01-20T15:12:42.673Z,48.40
2023-01-20T15:15:15.354Z,48.35
2023-01-20T15:18:19.968Z,49.53
2023-01-20T15:20:49.946Z,51.80
2023-01-20T15:23:22.531Z,50.75
2023-01-20T15:25:50.987Z,49.95
2023-01-20T15:28:25.779Z,50.17
2023-01-20T15:30:56.220Z,50.28
2023-01-20T15:33:24.870Z,51.75
2023-01-20T15:35:55.240Z,51.13
2023-01-20T15:38:23.368Z,44.88
2023-01-20T15:40:51.480Z,47.00
2023-01-20T15:43:19.774Z,47.05
2023-01-20T15:45:47.947Z,44.63
2023-01-20T15:48:18.056Z,46.17
2023-01-20T15:50:46.406Z,44.28
2023-01-20T15:53:14.593Z,44.08
2023-01-20T15:55:50.261Z,44.70
2023-01-20T15:58:23.311Z,43.05
2023-01-20T16:00:51.503Z,43.60
2023-01-20T16:03:21.015Z,43.55
2023-01-20T16:05:50.047Z,43.80
2023-01-20T16:08:18.342Z,42.95
2023-01-20T16:10:46.486Z,43.20
2023-01-20T16:13:14.711Z,44.03
2023-01-20T16:15:43.208Z,43.30
2023-01-20T16:18:15.676Z,45.85
2023-01-20T16:20:46.105Z,46.78
2023-01-20T16:23:14.530Z,45.08
2023-01-20T16:25:42.850Z,49.25
2023-01-20T16:28:18.582Z,49.85
2023-01-20T16:30:46.975Z,54.97
2023-01-20T16:33:19.071Z,51.38
2023-01-20T16:35:48.605Z,51.25
2023-01-20T16:38:17.676Z,50.38
2023-01-20T16:40:50.977Z,50.25
2023-01-20T16:43:19.401Z,47.80
2023-01-20T16:45:50.574Z,47.63
2023-01-20T16:48:18.739Z,48.33
2023-01-20T16:50:48.315Z,47.70
2023-01-20T16:53:16.917Z,48.50
2023-01-20T16:55:45.296Z,47.45
2023-01-20T16:58:13.596Z,48.67
2023-01-20T17:00:41.729Z,46.33
2023-01-20T17:03:10.060Z,49.33
2023-01-20T17:05:38.178Z,46.38
2023-01-20T17:08:07.791Z,47.15
2023-01-20T17:10:35.840Z,45.33
2023-01-20T17:13:04.003Z,45.25
2023-01-20T17:15:32.128Z,45.30
2023-01-20T17:18:00.401Z,44.83
2023-01-20T17:20:31.113Z,44.05
2023-01-20T17:22:59.335Z,44.17
2023-01-20T17:25:28.891Z,45.95
2023-01-20T17:27:57.142Z,47.08
2023-01-20T17:30:26.432Z,43.53
2023-01-20T17:32:54.882Z,51.85
2023-01-20T17:35:23.009Z,47.92
2023-01-20T17:37:51.206Z,48.78
2023-01-20T17:40:19.562Z,48.08
2023-01-20T17:42:49.195Z,50.45
2023-01-20T17:45:17.490Z,51.05
2023-01-20T17:47:45.878Z,50.90
2023-01-20T17:50:14.355Z,50.38
2023-01-20T17:52:42.669Z,53.08
2023-01-20T17:55:11.636Z,52.67
2023-01-20T17:57:39.788Z,45.78
2023-01-20T18:00:11.028Z,48.67
2023-01-20T18:02:39.453Z,49.53
2023-01-20T18:05:08.476Z,55.80
2023-01-20T18:07:36.557Z,56.72
2023-01-20T18:10:04.871Z,51.30
2023-01-20T18:12:33.065Z,51.33
2023-01-20T18:15:01.185Z,50.20
2023-01-20T18:17:34.405Z,50.03
2023-01-20T18:20:02.683Z,51.03
2023-01-20T18:22:30.966Z,52.42
2023-01-20T18:24:59.233Z,51.60
2023-01-20T18:27:27.333Z,52.03
2023-01-20T18:29:55.454Z,54.33
2023-01-20T18:32:23.518Z,55.28
2023-01-20T18:34:53.105Z,54.45
2023-01-20T18:37:21.314Z,50.58
2023-01-20T18:39:50.341Z,45.72
2023-01-20T18:42:18.522Z,46.13
2023-01-20T18:44:46.611Z,45.22
2023-01-20T18:47:14.782Z,45.17
2023-01-20T18:49:42.816Z,43.88
2023-01-20T18:52:12.432Z,45.13
2023-01-20T18:54:40.646Z,43.90
2023-01-20T18:57:09.182Z,42.80
2023-01-20T18:59:37.581Z,44.53
2023-01-20T19:02:05.684Z,42.72
2023-01-20T19:04:35.792Z,41.50
2023-01-20T19:07:03.988Z,42.45
2023-01-20T19:09:33.570Z,42.08
2023-01-20T19:12:01.733Z,42.03
2023-01-20T19:14:29.860Z,40.85
2023-01-20T19:16:58.060Z,42.47
2023-01-20T19:19:26.152Z,41.65
2023-01-20T19:21:54.301Z,41.95
2023-01-20T19:24:22.620Z,42.42
2023-01-20T19:26:52.286Z,42.72
2023-01-20T19:29:20.753Z,42.38
2023-01-20T19:31:49.247Z,42.03
2023-01-20T19:34:17.492Z,41.25
2023-01-20T19:36:45.659Z,40.40
2023-01-20T19:39:13.837Z,40.65
2023-01-20T19:41:41.974Z,40.00
2023-01-20T19:44:13.594Z,39.55
2023-01-20T19:46:41.884Z,39.15
2023-01-20T19:49:10.778Z,38.00
2023-01-20T19:51:38.932Z,36.78
2023-01-20T19:54:07.408Z,37.65
2023-01-20T19:56:35.851Z,36.92
2023-01-20T19:59:05.991Z,36.63
2023-01-20T20:01:36.266Z,36.63
2023-01-20T20:04:06.003Z,35.50
2023-01-20T20:06:35.303Z,36.25
2023-01-20T20:09:05.275Z,36.70
2023-01-20T20:11:33.387Z,35.33
2023-01-20T20:14:02.358Z,35.17
2023-01-20T20:16:31.676Z,36.95
2023-01-20T20:19:01.336Z,35.58
2023-01-20T20:21:29.569Z,34.63
2023-01-20T20:23:58.527Z,33.88
2023-01-20T20:26:27.922Z,34.13
2023-01-20T20:28:56.022Z,34.97
2023-01-20T20:31:29.347Z,33.70
2023-01-20T20:33:57.926Z,32.65
2023-01-20T20:36:29.543Z,33.38
2023-01-20T20:38:58.846Z,33.97
2023-01-20T20:41:29.110Z,32.38
2023-01-20T20:43:57.372Z,32.78
2023-01-20T20:46:26.053Z,32.22
2023-01-20T20:48:54.629Z,30.95
2023-01-20T20:51:23.768Z,32.80
2023-01-20T20:53:54.398Z,31.70
2023-01-20T20:56:22.574Z,31.55
2023-01-20T20:59:00.948Z,32.10
2023-01-20T21:01:30.148Z,31.98
2023-01-20T21:04:00.475Z,29.70
2023-01-20T21:06:28.835Z,29.48
2023-01-20T21:08:58.748Z,30.25
2023-01-20T21:11:26.916Z,28.95
2023-01-20T21:13:55.200Z,28.48
2023-01-20T21:16:23.803Z,29.25
2023-01-20T21:18:52.372Z,29.35
2023-01-20T21:21:20.850Z,28.23
2023-01-20T21:23:49.748Z,27.50
2023-01-20T21:26:19.460Z,28.42
2023-01-20T21:28:49.355Z,28.55
2023-01-20T21:31:19.254Z,27.13
2023-01-20T21:33:49.161Z,27.08
2023-01-20T21:36:17.323Z,26.75
2023-01-20T21:38:46.644Z,26.00
2023-01-20T21:41:15.409Z,26.52
2023-01-20T21:44:03.342Z,26.08
2023-01-20T21:46:32.461Z,26.33
2023-01-20T21:49:17.842Z,25.95
2023-01-20T21:52:03.301Z,26.23
2023-01-20T21:54:31.825Z,25.48
2023-01-20T21:57:00.204Z,25.40
2023-01-20T21:59:29.765Z,26.02
2023-01-20T22:01:57.960Z,25.83
2023-01-20T22:04:26.079Z,24.83
2023-01-20T22:06:54.212Z,23.98
2023-01-20T22:09:22.287Z,24.55
2023-01-20T22:11:50.572Z,23.88
2023-01-20T22:14:18.690Z,23.75
2023-01-20T22:16:48.226Z,23.00
2023-01-20T22:19:16.579Z,23.88
2023-01-20T22:21:44.686Z,23.08
2023-01-20T22:24:12.820Z,22.85
2023-01-20T22:26:40.940Z,22.75
2023-01-20T22:29:09.513Z,22.67
2023-01-20T22:31:37.639Z,23.15
2023-01-20T22:34:07.586Z,22.27
2023-01-20T22:36:35.877Z,22.45
2023-01-20T22:39:04.256Z,22.38
2023-01-20T22:41:32.422Z,21.77
2023-01-20T22:44:00.551Z,22.40
2023-01-20T22:46:29.066Z,20.77
2023-01-20T22:48:57.222Z,20.52
2023-01-20T22:51:27.942Z,20.95
2023-01-20T22:53:56.200Z,20.00
2023-01-20T22:56:25.106Z,20.88
2023-01-20T22:58:53.339Z,20.17
2023-01-20T23:01:22.306Z,20.15
2023-01-20T23:03:53.993Z,19.90
2023-01-20T23:06:22.207Z,20.30
2023-01-20T23:08:51.713Z,20.15
2023-01-20T23:11:20.891Z,19.83
2023-01-20T23:13:49.035Z,18.95
2023-01-20T23:16:18.035Z,18.27
2023-01-20T23:18:46.181Z,18.98
2023-01-20T23:21:14.429Z,18.75
2023-01-20T23:23:42.573Z,18.50
2023-01-20T23:26:14.683Z,18.33
2023-01-20T23:28:43.124Z,18.85
2023-01-20T23:31:12.293Z,18.23
2023-01-20T23:33:43.235Z,18.60
2023-01-20T23:36:13.105Z,16.92
2023-01-20T23:38:41.289Z,18.05
2023-01-20T23:41:09.344Z,17.75
2023-01-20T23:43:38.871Z,17.23
2023-01-20T23:46:07.158Z,16.73
2023-01-20T23:48:35.449Z,16.80
2023-01-20T23:51:04.007Z,17.58
2023-01-20T23:53:32.771Z,17.30
2023-01-20T23:56:01.573Z,17.05
2023-01-20T23:58:29.807Z,17.08
